Portada
METAR-TAF:

METAR-TAF

Aeroports :

Fuzhou, Xina

latitud: 26-05N, longitud: 119-17E, altitud: 85 m

Observació

L'informe es va fer fa 31 minuts, a les 04:00 UTC
Vent 27 kt del Nord-Est
Temperatura 26°C
Humitat 37%
Pressió 1023 hPa
Visibilitat 10 km o més
Escasses núvols a una alçada de 2000 ft

METAR: ZSFZ 150400Z 04014MPS 9999 FEW020 26/10 Q1023 NOSIG

Hora: 12:31 (04:31 UTC)

Pronòstic

L'informe es va fer fa 9 hores i 25 minuts, a les 19:06 UTC
Pronòstic vàlid del 15 a les 00 UTC al 15 a les 24 UTC
Vent 23 kt del Nord-Est amb ràfegues de 33 kt
Visibilitat: 6000 m
Núvols disperses a una alçada de 1500 ft
Evolucionant progressivament
l' 15 a les 12 UTC al 15 a les 13 UTC
Vent 14 kt del Nord-Est amb ràfegues de 25 kt

TAF: ZSFZ 141906Z 1500/1524 04012G17MPS 6000 SCT015 TX26/1506Z TN18/1521Z BECMG 1512/1513 04007G13MPS

Observacions i pronòstics meteorològics de més de 4000 aeroports (METAR i TAF).

Les estacions disponibles són els punts grocs i vermells al mapa.

Posi el ratolí al punt desitjat per veure el nom de l'estació.

Feu clic per veure les observacions i els pronòstics meteorològics.

Per canviar el mapa: feu clic els botons verds amb una creu de color negre per apropar; al botó verd amb un guió per allunyar la imatge; o en les fletxes verdes per a mapes adjacents.


METAR-TAF: